createdAt,value
2017-12-30T00:02:11.468Z,3.20
2017-12-30T00:04:39.018Z,2.92
2017-12-30T00:07:06.627Z,3.00
2017-12-30T00:09:34.193Z,3.70
2017-12-30T00:12:01.778Z,3.15
2017-12-30T00:14:29.339Z,2.35
2017-12-30T00:16:56.912Z,2.75
2017-12-30T00:19:24.540Z,3.85
2017-12-30T00:21:52.088Z,3.05
2017-12-30T00:24:19.641Z,2.95
2017-12-30T00:26:47.236Z,2.70
2017-12-30T00:29:14.795Z,3.15
2017-12-30T00:31:42.401Z,2.50
2017-12-30T00:34:10.738Z,3.05
2017-12-30T00:36:38.361Z,3.25
2017-12-30T00:39:06.726Z,3.33
2017-12-30T00:41:35.067Z,2.67
2017-12-30T00:44:02.668Z,2.65
2017-12-30T00:46:30.992Z,2.97
2017-12-30T00:48:58.615Z,2.78
2017-12-30T00:51:26.224Z,3.20
2017-12-30T00:53:53.832Z,2.30
2017-12-30T00:56:22.161Z,3.12
2017-12-30T00:58:49.741Z,2.87
2017-12-30T01:01:17.343Z,2.92
2017-12-30T01:03:45.718Z,3.05
2017-12-30T01:06:14.080Z,2.62
2017-12-30T01:08:42.431Z,3.90
2017-12-30T01:11:10.028Z,3.58
2017-12-30T01:13:38.395Z,2.30
2017-12-30T01:16:06.746Z,3.30
2017-12-30T01:18:34.372Z,4.12
2017-12-30T01:21:01.923Z,2.15
2017-12-30T01:23:29.505Z,3.45
2017-12-30T01:25:57.093Z,3.45
2017-12-30T01:28:24.698Z,2.90
2017-12-30T01:30:52.301Z,3.25
2017-12-30T01:33:19.875Z,3.28
2017-12-30T01:35:47.437Z,3.75
2017-12-30T01:38:15.024Z,3.65
2017-12-30T01:40:42.579Z,3.40
2017-12-30T01:43:10.173Z,3.47
2017-12-30T01:45:37.774Z,3.12
2017-12-30T01:48:05.329Z,3.20
2017-12-30T01:50:32.917Z,3.05
2017-12-30T01:53:00.514Z,3.30
2017-12-30T01:55:28.116Z,3.25
2017-12-30T01:57:55.679Z,2.58
2017-12-30T02:00:23.269Z,4.07
2017-12-30T02:02:50.868Z,4.35
2017-12-30T02:05:18.416Z,3.92
2017-12-30T02:07:46.037Z,3.00
2017-12-30T02:10:13.592Z,4.35
2017-12-30T02:12:41.147Z,4.40
2017-12-30T02:15:08.732Z,2.90
2017-12-30T02:17:37.092Z,4.05
2017-12-30T02:20:04.685Z,3.30
2017-12-30T02:22:33.035Z,3.42
2017-12-30T02:25:00.630Z,2.80
2017-12-30T02:27:28.985Z,3.20
2017-12-30T02:29:56.573Z,3.28
2017-12-30T02:32:24.141Z,3.90
2017-12-30T02:34:51.734Z,3.60
2017-12-30T02:37:19.332Z,3.62
2017-12-30T02:39:46.884Z,3.87
2017-12-30T02:42:14.496Z,3.62
2017-12-30T02:44:42.098Z,3.30
2017-12-30T02:47:09.650Z,3.78
2017-12-30T02:49:37.242Z,3.33
2017-12-30T02:52:05.611Z,3.50
2017-12-30T02:54:33.162Z,4.60
2017-12-30T02:57:00.716Z,4.45
2017-12-30T02:59:28.299Z,4.07
2017-12-30T03:01:55.888Z,3.50
2017-12-30T03:04:23.440Z,3.85
2017-12-30T03:06:51.796Z,3.33
2017-12-30T03:09:19.398Z,3.28
2017-12-30T03:11:46.974Z,4.60
2017-12-30T03:14:14.572Z,4.07
2017-12-30T03:16:42.176Z,2.85
2017-12-30T03:19:09.793Z,3.00
2017-12-30T03:21:37.348Z,2.70
2017-12-30T03:24:04.926Z,3.40
2017-12-30T03:26:32.524Z,3.62
2017-12-30T03:29:00.077Z,3.75
2017-12-30T03:31:27.639Z,3.45
2017-12-30T03:33:55.243Z,3.33
2017-12-30T03:36:22.810Z,4.12
2017-12-30T03:38:50.356Z,4.00
2017-12-30T03:41:17.948Z,3.72
2017-12-30T03:43:45.537Z,3.55
2017-12-30T03:46:13.118Z,2.92
2017-12-30T03:48:41.476Z,3.58
2017-12-30T03:51:09.048Z,3.35
2017-12-30T03:53:36.639Z,3.20
2017-12-30T03:56:04.212Z,3.20
2017-12-30T03:58:31.769Z,2.80
2017-12-30T04:00:59.371Z,2.70
2017-12-30T04:03:27.717Z,2.50
2017-12-30T04:05:55.264Z,3.20
2017-12-30T04:08:22.849Z,2.75
2017-12-30T04:10:50.411Z,2.80
2017-12-30T04:13:18.766Z,2.80
2017-12-30T04:15:46.320Z,3.25
2017-12-30T04:18:13.931Z,3.00
2017-12-30T04:20:42.295Z,3.33
2017-12-30T04:23:10.652Z,3.30
2017-12-30T04:25:38.238Z,3.05
2017-12-30T04:28:06.604Z,2.85
2017-12-30T04:30:34.147Z,2.90
2017-12-30T04:33:01.753Z,2.83
2017-12-30T04:35:30.109Z,2.85
2017-12-30T04:37:58.480Z,2.95
2017-12-30T04:40:26.080Z,2.42
2017-12-30T04:42:53.626Z,2.62
2017-12-30T04:45:21.949Z,2.40
2017-12-30T04:47:49.764Z,3.75
2017-12-30T04:50:18.085Z,2.60
2017-12-30T04:52:45.672Z,2.58
2017-12-30T04:55:13.236Z,2.80
2017-12-30T04:57:40.834Z,3.00
2017-12-30T05:00:09.154Z,3.25
2017-12-30T05:02:36.754Z,2.83
2017-12-30T05:05:04.317Z,2.50
2017-12-30T05:07:32.687Z,3.62
2017-12-30T05:10:00.291Z,3.45
2017-12-30T05:12:27.854Z,3.12
2017-12-30T05:14:55.415Z,2.62
2017-12-30T05:17:22.986Z,2.75
2017-12-30T05:19:50.588Z,2.85
2017-12-30T05:22:18.148Z,2.50
2017-12-30T05:24:45.745Z,3.05
2017-12-30T05:27:13.300Z,2.58
2017-12-30T05:29:41.649Z,2.80
2017-12-30T05:32:09.254Z,3.58
2017-12-30T05:34:36.853Z,3.75
2017-12-30T05:37:04.460Z,3.70
2017-12-30T05:39:32.774Z,3.08
2017-12-30T05:42:00.333Z,2.62
2017-12-30T05:44:27.911Z,2.62
2017-12-30T05:46:55.484Z,3.37
2017-12-30T05:49:23.078Z,3.37
2017-12-30T05:51:51.411Z,4.85
2017-12-30T05:54:19.011Z,3.60
2017-12-30T05:56:47.372Z,3.90
2017-12-30T05:59:15.724Z,3.15
2017-12-30T06:01:43.312Z,3.00
2017-12-30T06:04:10.868Z,3.78
2017-12-30T06:06:38.472Z,3.12
2017-12-30T06:09:06.041Z,4.00
2017-12-30T06:11:33.611Z,3.53
2017-12-30T06:14:01.189Z,3.58
2017-12-30T06:16:28.745Z,3.33
2017-12-30T06:18:56.335Z,2.87
2017-12-30T06:21:23.892Z,2.90
2017-12-30T06:23:51.442Z,3.15
2017-12-30T06:26:19.031Z,2.90
2017-12-30T06:28:47.408Z,3.10
2017-12-30T06:31:15.733Z,2.87
2017-12-30T06:33:43.296Z,3.22
2017-12-30T06:36:10.896Z,3.17
2017-12-30T06:38:38.453Z,3.37
2017-12-30T06:41:06.052Z,3.60
2017-12-30T06:43:33.637Z,3.95
2017-12-30T06:46:01.246Z,3.25
2017-12-30T06:48:29.589Z,2.30
2017-12-30T06:50:57.184Z,2.83
2017-12-30T06:53:25.564Z,4.97
2017-12-30T06:55:53.916Z,3.10
2017-12-30T06:58:21.466Z,3.45
2017-12-30T07:00:49.072Z,3.30
2017-12-30T07:03:17.412Z,2.95
2017-12-30T07:05:44.957Z,2.20
2017-12-30T07:08:13.336Z,2.45
2017-12-30T07:10:40.919Z,2.45
2017-12-30T07:13:08.516Z,3.97
2017-12-30T07:15:36.841Z,2.70
2017-12-30T07:18:04.439Z,2.78
2017-12-30T07:20:32.791Z,2.55
2017-12-30T07:23:00.369Z,2.87
2017-12-30T07:25:27.945Z,2.95
2017-12-30T07:27:56.306Z,3.85
2017-12-30T07:30:23.853Z,2.50
2017-12-30T07:32:51.452Z,3.35
2017-12-30T07:35:19.785Z,2.75
2017-12-30T07:37:47.393Z,3.47
2017-12-30T07:40:15.733Z,2.40
2017-12-30T07:42:43.325Z,2.30
2017-12-30T07:45:11.692Z,2.53
2017-12-30T07:47:40.016Z,2.70
2017-12-30T07:50:07.590Z,2.55
2017-12-30T07:52:35.191Z,3.22
2017-12-30T07:55:02.756Z,2.60
2017-12-30T07:57:31.080Z,3.03
2017-12-30T07:59:58.681Z,2.35
2017-12-30T08:02:26.228Z,2.92
2017-12-30T08:04:53.793Z,3.30
2017-12-30T08:07:21.436Z,2.25
2017-12-30T08:09:48.996Z,2.75
2017-12-30T08:12:16.557Z,2.97
2017-12-30T08:14:44.146Z,3.37
2017-12-30T08:17:12.565Z,2.78
2017-12-30T08:19:40.884Z,3.10
2017-12-30T08:22:08.442Z,2.87
2017-12-30T08:24:36.035Z,3.03
2017-12-30T08:27:03.626Z,2.65
2017-12-30T08:29:31.228Z,3.08
2017-12-30T08:31:58.781Z,3.25
2017-12-30T08:34:26.370Z,2.25
2017-12-30T08:36:53.928Z,3.00
2017-12-30T08:39:23.022Z,1.95
2017-12-30T08:41:50.620Z,2.53
2017-12-30T08:44:18.942Z,2.80
2017-12-30T08:46:46.543Z,2.30
2017-12-30T08:49:14.925Z,4.00
2017-12-30T08:51:43.250Z,2.35
2017-12-30T08:54:10.799Z,3.08
2017-12-30T08:56:38.385Z,2.35
2017-12-30T08:59:05.964Z,2.80
2017-12-30T09:01:33.553Z,1.80
2017-12-30T09:04:01.874Z,3.33
2017-12-30T09:06:29.489Z,3.00
2017-12-30T09:08:57.811Z,2.67
2017-12-30T09:11:25.382Z,3.37
2017-12-30T09:13:52.987Z,2.70
2017-12-30T09:16:21.320Z,2.30
2017-12-30T09:18:48.920Z,1.90
2017-12-30T09:21:17.255Z,3.45
2017-12-30T09:23:44.818Z,2.80
2017-12-30T09:26:12.418Z,2.30
2017-12-30T09:28:40.766Z,2.25
2017-12-30T09:31:09.165Z,2.28
2017-12-30T09:33:36.793Z,2.05
2017-12-30T09:36:04.411Z,1.52
2017-12-30T09:38:32.732Z,2.10
2017-12-30T09:41:00.333Z,2.08
2017-12-30T09:43:28.740Z,1.70
2017-12-30T09:45:57.108Z,2.28
2017-12-30T09:48:25.469Z,1.95
2017-12-30T09:50:53.825Z,2.05
2017-12-30T09:53:21.451Z,2.53
2017-12-30T09:55:49.043Z,3.30
2017-12-30T09:58:16.663Z,1.80
2017-12-30T10:00:44.972Z,2.33
2017-12-30T10:03:12.557Z,2.17
2017-12-30T10:05:40.111Z,2.10
2017-12-30T10:08:07.709Z,2.03
2017-12-30T10:10:36.087Z,2.30
2017-12-30T10:13:04.417Z,1.80
2017-12-30T10:15:31.994Z,1.95
2017-12-30T10:17:59.563Z,2.10
2017-12-30T10:20:27.196Z,2.62
2017-12-30T10:22:54.739Z,2.50
2017-12-30T10:25:22.307Z,2.22
2017-12-30T10:27:49.927Z,2.53
2017-12-30T10:30:18.319Z,1.77
2017-12-30T10:32:46.634Z,2.20
2017-12-30T10:35:15.009Z,2.50
2017-12-30T10:37:42.600Z,1.95
2017-12-30T10:40:10.197Z,1.90
2017-12-30T10:42:38.592Z,2.00
2017-12-30T10:45:06.159Z,2.20
2017-12-30T10:47:33.718Z,2.08
2017-12-30T10:50:02.085Z,2.05
2017-12-30T10:52:30.423Z,1.70
2017-12-30T10:54:57.978Z,2.40
2017-12-30T10:57:26.356Z,1.73
2017-12-30T10:59:53.940Z,2.20
2017-12-30T11:02:21.529Z,1.90
2017-12-30T11:04:49.872Z,1.90
2017-12-30T11:07:17.430Z,2.20
2017-12-30T11:09:45.023Z,1.87
2017-12-30T11:12:12.620Z,2.67
2017-12-30T11:14:40.175Z,1.90
2017-12-30T11:17:07.761Z,1.90
2017-12-30T11:19:35.337Z,2.10
2017-12-30T11:22:02.926Z,1.85
2017-12-30T11:24:31.296Z,1.85
2017-12-30T11:26:58.844Z,1.80
2017-12-30T11:29:27.163Z,2.37
2017-12-30T11:31:54.763Z,1.80
2017-12-30T11:34:22.317Z,1.55
2017-12-30T11:36:49.899Z,1.80
2017-12-30T11:39:17.489Z,1.73
2017-12-30T11:41:45.063Z,1.50
2017-12-30T11:44:12.653Z,1.58
2017-12-30T11:46:40.288Z,1.65
2017-12-30T11:49:07.876Z,2.08
2017-12-30T11:51:35.474Z,1.92
2017-12-30T11:54:03.034Z,1.83
2017-12-30T11:56:31.368Z,2.03
2017-12-30T11:58:58.961Z,1.80
2017-12-30T12:01:26.516Z,2.30
2017-12-30T12:03:54.114Z,2.58
2017-12-30T12:06:21.666Z,2.33
2017-12-30T12:08:50.121Z,2.85
2017-12-30T12:11:17.669Z,2.83
2017-12-30T12:13:45.220Z,2.20
2017-12-30T12:16:12.797Z,2.40
2017-12-30T12:18:40.437Z,2.40
2017-12-30T12:21:07.961Z,2.12
2017-12-30T12:23:35.529Z,1.95
2017-12-30T12:26:03.118Z,1.50
2017-12-30T12:28:30.677Z,1.70
2017-12-30T12:30:58.272Z,1.77
2017-12-30T12:33:25.814Z,1.75
2017-12-30T12:35:53.401Z,1.50
2017-12-30T12:38:21.056Z,1.73
2017-12-30T12:40:48.609Z,1.77
2017-12-30T12:43:21.739Z,1.83
2017-12-30T12:45:49.295Z,1.70
2017-12-30T12:48:16.908Z,1.98
2017-12-30T12:50:44.461Z,2.33
2017-12-30T12:53:12.036Z,1.55
2017-12-30T12:55:39.620Z,2.25
2017-12-30T12:58:07.932Z,2.33
2017-12-30T13:00:35.523Z,2.10
2017-12-30T13:03:03.080Z,2.95
2017-12-30T13:05:30.673Z,2.85
2017-12-30T13:07:58.281Z,2.72
2017-12-30T13:10:25.847Z,2.05
2017-12-30T13:12:53.438Z,1.85
2017-12-30T13:15:21.027Z,1.75
2017-12-30T13:17:49.372Z,1.80
2017-12-30T13:20:16.980Z,2.00
2017-12-30T13:22:44.566Z,1.73
2017-12-30T13:25:12.160Z,1.37
2017-12-30T13:27:39.752Z,2.28
2017-12-30T13:30:08.072Z,2.05
2017-12-30T13:32:36.435Z,2.65
2017-12-30T13:35:04.017Z,2.00
2017-12-30T13:37:31.622Z,3.50
2017-12-30T13:39:59.962Z,2.00
2017-12-30T13:42:27.581Z,1.65
2017-12-30T13:44:55.144Z,2.00
2017-12-30T13:47:22.767Z,2.08
2017-12-30T13:49:50.319Z,2.00
2017-12-30T13:52:17.893Z,3.45
2017-12-30T13:54:45.499Z,2.80
2017-12-30T13:57:13.153Z,2.55
2017-12-30T13:59:40.753Z,2.47
2017-12-30T14:02:08.350Z,2.33
2017-12-30T14:04:36.679Z,2.12
2017-12-30T14:07:04.268Z,2.42
2017-12-30T14:09:31.836Z,3.28
2017-12-30T14:11:59.435Z,2.42
2017-12-30T14:14:27.026Z,2.35
2017-12-30T14:16:54.585Z,3.20
2017-12-30T14:19:22.965Z,2.45
2017-12-30T14:21:50.572Z,2.00
2017-12-30T14:24:18.946Z,2.17
2017-12-30T14:26:46.549Z,2.00
2017-12-30T14:29:14.111Z,2.50
2017-12-30T14:31:41.668Z,2.37
2017-12-30T14:34:09.260Z,2.08
2017-12-30T14:36:36.841Z,2.28
2017-12-30T14:39:04.471Z,2.78
2017-12-30T14:41:32.135Z,2.83
2017-12-30T14:43:59.846Z,2.58
2017-12-30T14:46:28.249Z,2.47
2017-12-30T14:48:56.067Z,2.12
2017-12-30T14:51:23.759Z,2.17
2017-12-30T14:53:52.136Z,2.08
2017-12-30T14:56:19.766Z,1.73
2017-12-30T14:58:47.373Z,3.20
2017-12-30T15:01:15.702Z,1.30
2017-12-30T15:03:43.320Z,3.08
2017-12-30T15:06:10.945Z,1.65
2017-12-30T15:08:39.273Z,2.30
2017-12-30T15:11:07.740Z,1.67
2017-12-30T15:13:35.363Z,1.77
2017-12-30T15:16:02.948Z,1.87
2017-12-30T15:18:31.289Z,1.48
2017-12-30T15:20:58.848Z,1.50
2017-12-30T15:23:26.450Z,1.92
2017-12-30T15:25:54.772Z,2.58
2017-12-30T15:28:22.384Z,1.75
2017-12-30T15:30:50.756Z,1.70
2017-12-30T15:33:18.344Z,1.52
2017-12-30T15:35:45.915Z,1.87
2017-12-30T15:38:13.527Z,2.25
2017-12-30T15:40:41.928Z,2.28
2017-12-30T15:43:10.240Z,2.55
2017-12-30T15:45:37.840Z,2.12
2017-12-30T15:48:05.404Z,2.35
2017-12-30T15:50:33.006Z,2.25
2017-12-30T15:53:00.606Z,2.35
2017-12-30T15:55:28.156Z,2.20
2017-12-30T15:57:55.770Z,1.83
2017-12-30T16:00:24.154Z,2.22
2017-12-30T16:02:52.484Z,1.98
2017-12-30T16:05:20.053Z,1.85
2017-12-30T16:07:47.702Z,2.15
2017-12-30T16:10:15.241Z,1.67
2017-12-30T16:12:42.858Z,1.80
2017-12-30T16:15:10.417Z,3.10
2017-12-30T16:17:38.008Z,1.85
2017-12-30T16:20:05.639Z,1.48
2017-12-30T16:22:33.239Z,2.17
2017-12-30T16:25:00.805Z,1.40
2017-12-30T16:27:28.368Z,1.45
2017-12-30T16:29:55.981Z,1.30
2017-12-30T16:32:24.462Z,1.62
2017-12-30T16:34:52.069Z,1.60
2017-12-30T16:37:19.686Z,1.95
2017-12-30T16:39:47.313Z,2.22
2017-12-30T16:42:14.947Z,2.20
2017-12-30T16:44:42.507Z,1.80
2017-12-30T16:47:10.124Z,2.75
2017-12-30T16:49:37.717Z,2.12
2017-12-30T16:52:06.086Z,2.20
2017-12-30T16:54:34.439Z,2.47
2017-12-30T16:57:02.045Z,2.37
2017-12-30T16:59:29.659Z,2.37
2017-12-30T17:01:57.238Z,2.28
2017-12-30T17:04:24.855Z,2.25
2017-12-30T17:06:52.436Z,2.42
2017-12-30T17:09:20.038Z,2.33
2017-12-30T17:11:48.417Z,2.37
2017-12-30T17:14:16.752Z,3.10
2017-12-30T17:16:44.330Z,2.37
2017-12-30T17:19:11.930Z,1.77
2017-12-30T17:21:39.526Z,2.45
2017-12-30T17:24:07.172Z,2.03
2017-12-30T17:26:34.733Z,1.83
2017-12-30T17:29:02.306Z,1.92
2017-12-30T17:31:29.909Z,2.35
2017-12-30T17:33:57.506Z,2.03
2017-12-30T17:36:25.086Z,2.12
2017-12-30T17:38:52.642Z,2.00
2017-12-30T17:41:20.269Z,2.03
2017-12-30T17:43:48.589Z,1.80
2017-12-30T17:46:16.165Z,1.67
2017-12-30T17:48:43.788Z,1.90
2017-12-30T17:51:11.354Z,1.92
2017-12-30T17:53:38.915Z,2.03
2017-12-30T17:56:06.535Z,2.20
2017-12-30T17:58:34.928Z,1.70
2017-12-30T18:01:03.261Z,2.50
2017-12-30T18:03:30.846Z,2.10
2017-12-30T18:05:58.469Z,2.30
2017-12-30T18:08:26.045Z,1.70
2017-12-30T18:10:53.641Z,2.15
2017-12-30T18:13:22.008Z,2.12
2017-12-30T18:15:49.590Z,2.22
2017-12-30T18:18:17.244Z,1.80
2017-12-30T18:20:45.572Z,1.80
2017-12-30T18:23:13.152Z,1.90
2017-12-30T18:25:40.776Z,1.33
2017-12-30T18:28:08.347Z,1.40
2017-12-30T18:30:35.962Z,1.40
2017-12-30T18:33:04.344Z,1.50
2017-12-30T18:35:32.723Z,1.58
2017-12-30T18:38:01.080Z,1.50
2017-12-30T18:40:28.665Z,1.20
2017-12-30T18:42:56.996Z,1.48
2017-12-30T18:45:24.602Z,2.10
2017-12-30T18:47:52.960Z,1.73
2017-12-30T18:50:20.576Z,1.67
2017-12-30T18:52:48.180Z,1.95
2017-12-30T18:55:17.691Z,1.67
2017-12-30T18:57:45.286Z,1.80
2017-12-30T19:00:13.620Z,2.40
2017-12-30T19:02:41.223Z,6.72
2017-12-30T19:05:09.605Z,23.12
2017-12-30T19:07:37.185Z,21.70
2017-12-30T19:10:04.749Z,12.48
2017-12-30T19:12:32.361Z,22.77
2017-12-30T19:14:59.921Z,8.32
2017-12-30T19:17:27.512Z,3.85
2017-12-30T19:19:55.840Z,3.70
2017-12-30T19:22:23.467Z,3.00
2017-12-30T19:24:51.836Z,2.30
2017-12-30T19:27:19.451Z,2.00
2017-12-30T19:29:47.013Z,2.35
2017-12-30T19:32:14.560Z,2.12
2017-12-30T19:34:42.156Z,2.00
2017-12-30T19:37:10.492Z,1.95
2017-12-30T19:39:38.100Z,1.95
2017-12-30T19:42:06.433Z,2.03
2017-12-30T19:44:34.052Z,2.17
2017-12-30T19:47:01.641Z,1.50
2017-12-30T19:49:29.251Z,1.48
2017-12-30T19:51:56.864Z,1.90
2017-12-30T19:54:24.455Z,1.67
2017-12-30T19:56:52.060Z,1.50
2017-12-30T19:59:19.664Z,1.50
2017-12-30T20:01:47.239Z,1.37
2017-12-30T20:04:14.845Z,1.48
2017-12-30T20:06:42.420Z,1.70
2017-12-30T20:09:10.038Z,1.90
2017-12-30T20:11:37.607Z,1.42
2017-12-30T20:14:05.971Z,1.80
2017-12-30T20:16:33.552Z,1.30
2017-12-30T20:19:01.934Z,1.60
2017-12-30T20:21:30.273Z,1.12
2017-12-30T20:23:57.853Z,1.35
2017-12-30T20:26:25.467Z,1.48
2017-12-30T20:28:53.060Z,1.50
2017-12-30T20:31:20.610Z,1.77
2017-12-30T20:33:48.172Z,1.35
2017-12-30T20:36:15.773Z,1.80
2017-12-30T20:38:44.139Z,1.52
2017-12-30T20:41:12.476Z,1.20
2017-12-30T20:43:40.073Z,1.30
2017-12-30T20:46:07.679Z,1.35
2017-12-30T20:48:35.272Z,1.67
2017-12-30T20:51:02.820Z,1.23
2017-12-30T20:55:54.139Z,1.55
2017-12-30T20:58:21.746Z,1.40
2017-12-30T21:00:50.116Z,1.40
2017-12-30T21:03:17.672Z,1.30
2017-12-30T21:05:45.295Z,1.20
2017-12-30T21:08:12.840Z,1.48
2017-12-30T21:10:41.220Z,1.20
2017-12-30T21:13:08.786Z,1.17
2017-12-30T21:15:36.337Z,1.17
2017-12-30T21:18:03.971Z,1.20
2017-12-30T21:20:31.520Z,1.58
2017-12-30T21:22:59.138Z,1.20
2017-12-30T21:25:26.700Z,1.20
2017-12-30T21:27:54.259Z,1.00
2017-12-30T21:30:21.879Z,1.20
2017-12-30T21:32:50.289Z,1.50
2017-12-30T21:35:17.849Z,1.00
2017-12-30T21:37:45.426Z,1.30
2017-12-30T21:40:13.836Z,1.30
2017-12-30T21:42:41.397Z,1.00
2017-12-30T21:45:09.002Z,1.48
2017-12-30T21:47:37.375Z,1.33
2017-12-30T21:50:05.708Z,1.20
2017-12-30T21:52:33.308Z,1.15
2017-12-30T21:55:01.698Z,1.20
2017-12-30T21:57:29.267Z,1.00
2017-12-30T21:59:56.911Z,1.00
2017-12-30T22:02:25.279Z,1.30
2017-12-30T22:04:52.900Z,1.10
2017-12-30T22:07:20.518Z,1.12
2017-12-30T22:09:48.891Z,1.17
2017-12-30T22:12:16.523Z,0.90
2017-12-30T22:14:44.119Z,1.23
2017-12-30T22:17:12.483Z,1.35
2017-12-30T22:19:40.079Z,1.75
2017-12-30T22:22:07.640Z,1.10
2017-12-30T22:24:35.280Z,1.10
2017-12-30T22:27:03.660Z,1.25
2017-12-30T22:29:31.987Z,1.10
2017-12-30T22:31:59.599Z,1.00
2017-12-30T22:34:27.958Z,1.12
2017-12-30T22:36:55.591Z,1.15
2017-12-30T22:39:23.968Z,1.30
2017-12-30T22:41:52.360Z,1.12
2017-12-30T22:44:19.916Z,1.10
2017-12-30T22:46:47.601Z,1.10
2017-12-30T22:49:15.158Z,1.20
2017-12-30T22:51:42.717Z,1.25
2017-12-30T22:54:10.326Z,1.30
2017-12-30T22:56:37.888Z,1.23
2017-12-30T22:59:05.476Z,1.00
2017-12-30T23:01:33.038Z,1.20
2017-12-30T23:04:01.398Z,1.20
2017-12-30T23:06:28.987Z,1.08
2017-12-30T23:08:56.657Z,1.15
2017-12-30T23:11:24.252Z,1.15
2017-12-30T23:13:52.749Z,1.00
2017-12-30T23:16:20.303Z,1.10
2017-12-30T23:18:48.628Z,1.12
2017-12-30T23:21:16.300Z,1.20
2017-12-30T23:23:43.856Z,0.93
2017-12-30T23:26:11.429Z,1.08
2017-12-30T23:28:39.146Z,1.10
2017-12-30T23:31:06.707Z,1.08
2017-12-30T23:33:34.268Z,1.00
2017-12-30T23:36:01.894Z,1.15
2017-12-30T23:38:30.261Z,1.00
2017-12-30T23:40:57.848Z,0.98
2017-12-30T23:43:26.186Z,0.95
2017-12-30T23:45:53.797Z,1.00
2017-12-30T23:48:21.350Z,1.48
2017-12-30T23:50:48.920Z,1.00
2017-12-30T23:53:17.293Z,1.10
2017-12-30T23:55:44.857Z,1.10
2017-12-30T23:58:12.547Z,1.00
